• Join FlightAware (Why Join?)
  • Login
  • US Flag 
04:09PM EDT


 

Airport Tracker/Info


-or-


 

Live Flight TrackerFlight Track Log ✈ N550PM ✈ 15-Aug-2013 ✈ NVVV / VLI - RJGG / NGO

Flight Track Log - Related Links

Times and Time Zones

All times are in EDT time to prevent confusion due to time zone crossing. See the N550PM flight status page for this flight to view local times or setup timezone preferences in your user account.

Time Position Orientation Groundspeed Altitude Reporting Facility
EDT Latitude Longitude Course Direction KTS MPH feet Rate Location/Type
08:41PM -15.9094 166.4409 315° West  Level FlightAware Approximate
08:42PM -15.8229 166.3519 315° West  Level FlightAware Approximate
08:43PM -15.7364 166.2630 315° West  Level FlightAware Approximate
08:44PM -15.6498 166.1741 315° West  Level FlightAware Approximate
08:45PM -15.5633 166.0853 315° West  Level FlightAware Approximate
08:46PM -15.4767 165.9965 315° West  Level FlightAware Approximate
08:47PM -15.3900 165.9079 315° West  Level FlightAware Approximate
08:48PM -15.3033 165.8193 315° West  Level FlightAware Approximate
08:49PM -15.2166 165.7307 315° West  Level FlightAware Approximate
08:50PM -15.1298 165.6423 315° West  Level FlightAware Approximate
08:51PM -15.0430 165.5539 315° West  Level FlightAware Approximate
08:52PM -14.9562 165.4656 315° West  Level FlightAware Approximate
08:53PM -14.8694 165.3774 316° Northwest  Level FlightAware Approximate
08:54PM -14.7825 165.2892 316° Northwest  Level FlightAware Approximate
08:55PM -14.6955 165.2012 316° Northwest  Level FlightAware Approximate
08:56PM -14.6086 165.1131 316° Northwest  Level FlightAware Approximate
08:57PM -14.5216 165.0252 316° Northwest  Level FlightAware Approximate
08:58PM -14.4346 164.9373 316° Northwest  Level FlightAware Approximate
08:59PM -14.3475 164.8495 316° Northwest  Level FlightAware Approximate
09:00PM -14.2604 164.7617 316° Northwest  Level FlightAware Approximate
09:01PM -14.1733 164.6741 316° Northwest  Level FlightAware Approximate
09:02PM -14.0861 164.5865 316° Northwest  Level FlightAware Approximate
09:03PM -13.9989 164.4989 316° Northwest  Level FlightAware Approximate
09:04PM -13.9117 164.4115 316° Northwest  Level FlightAware Approximate
09:05PM -13.8245 164.3241 316° Northwest  Level FlightAware Approximate
09:06PM -13.7372 164.2367 316° Northwest  Level FlightAware Approximate
09:07PM -13.6499 164.1494 316° Northwest  Level FlightAware Approximate
09:08PM -13.5625 164.0622 316° Northwest  Level FlightAware Approximate
09:08PM -13.8530 164.3391 323° Northwest 43,000  Level Aus ATC (Calculated)
09:09PM -13.4752 163.9751 316° Northwest  Level FlightAware Approximate
09:10PM -13.6586 164.2350 316° Northwest  Level Estimated
09:11PM -13.5722 164.1468 315° West  Level FlightAware Approximate
09:11PM -13.6072 164.0941 324° Northwest 43,000  Level Aus ATC (Calculated)
09:13PM -13.4507 163.9394 316° Northwest  Level FlightAware Approximate
09:14PM -13.3630 163.8527 316° Northwest  Level FlightAware Approximate
09:15PM -13.2751 163.7661 316° Northwest  Level FlightAware Approximate
09:15PM -13.2852 163.7744 324° Northwest 43,000  Level Aus ATC (Calculated)
09:16PM -13.1623 163.6526 324° Northwest 43,000  Level Aus ATC (Calculated)
09:18PM -13.0362 163.5287 316° Northwest  Level FlightAware Approximate
09:19PM -12.9483 163.4424 316° Northwest  Level FlightAware Approximate
09:19PM -12.9276 163.4207 324° Northwest 43,000  Level Aus ATC (Calculated)
09:20PM -12.8603 163.3561 316° Northwest  Level FlightAware Approximate
09:21PM -12.7780 163.2742 316° Northwest  Level FlightAware Approximate
09:22PM -12.6899 163.1881 316° Northwest  Level FlightAware Approximate
09:23PM -12.6018 163.1020 316° Northwest  Level FlightAware Approximate
09:24PM -12.5137 163.0160 316° Northwest  Level FlightAware Approximate
09:25PM -12.4255 162.9300 316° Northwest  Level FlightAware Approximate
09:26PM -12.3374 162.8441 316° Northwest  Level FlightAware Approximate
09:27PM -12.2492 162.7583 316° Northwest  Level FlightAware Approximate
09:28PM -12.1609 162.6725 316° Northwest  Level FlightAware Approximate
09:29PM -12.0727 162.5868 316° Northwest  Level FlightAware Approximate
09:30PM -11.9844 162.5012 316° Northwest  Level FlightAware Approximate
09:31PM -11.8961 162.4156 317° Northwest  Level FlightAware Approximate
09:32PM -11.8077 162.3300 317° Northwest  Level FlightAware Approximate
09:33PM -11.7194 162.2445 317° Northwest  Level FlightAware Approximate
09:34PM -11.6310 162.1591 317° Northwest  Level FlightAware Approximate
09:35PM -11.5426 162.0737 317° Northwest  Level FlightAware Approximate
09:36PM -11.4541 161.9884 317° Northwest  Level FlightAware Approximate
09:37PM -11.3657 161.9031 317° Northwest  Level FlightAware Approximate
09:38PM -11.2772 161.8179 317° Northwest  Level FlightAware Approximate
09:39PM -11.1887 161.7327 317° Northwest  Level FlightAware Approximate
09:40PM -11.1001 161.6476 317° Northwest  Level FlightAware Approximate
09:41PM -11.0116 161.5625 317° Northwest  Level FlightAware Approximate
09:42PM -10.9022 161.5081 316° Northwest  Level Estimated
09:43PM -10.8168 161.4198 315° West  Level FlightAware Approximate
09:43PM -10.9352 161.4759 326° Northwest 43,000  Level Aus ATC (Calculated)
09:45PM -10.7808 161.3295 317° Northwest  Level FlightAware Approximate
09:46PM -10.6917 161.2451 317° Northwest  Level FlightAware Approximate
09:47PM -10.6026 161.1607 317° Northwest  Level FlightAware Approximate
09:48PM -10.4930 161.1068 316° Northwest  Level Estimated
09:48PM -10.5019 161.0582 327° Northwest 43,000  Level Aus ATC (Calculated)
09:50PM -10.3546 160.9164 317° Northwest  Level FlightAware Approximate
09:51PM -10.2662 160.8313 317° Northwest  Level FlightAware Approximate
09:52PM -10.1778 160.7464 317° Northwest  Level FlightAware Approximate
09:53PM -10.0893 160.6614 317° Northwest  Level FlightAware Approximate
09:54PM -10.0009 160.5765 317° Northwest  Level FlightAware Approximate
09:55PM -9.9124 160.4917 317° Northwest  Level FlightAware Approximate
09:56PM -9.8025 160.4386 328° Northwest  Level Estimated
09:56PM -9.8000 160.3854 328° Northwest 43,000  Level Aus ATC (Calculated)
09:56PM -9.7544 160.3418 328° Northwest 43,000  Level Aus ATC (Calculated)
09:57PM -9.7088 160.2983 328° Northwest 43,000  Level Aus ATC (Calculated)
09:58PM -9.5720 160.1677 328° Northwest 43,000  Level Aus ATC (Calculated)
09:59PM -9.5162 160.1612 325° Northwest  Level FlightAware Approximate
10:00PM -9.4421 160.0798 326° Northwest  Level FlightAware Approximate
10:01PM -9.3409 160.0112 326° Northwest  Level FlightAware Approximate
10:02PM -9.2396 159.9428 326° Northwest  Level FlightAware Approximate
10:02PM -9.2223 159.9028 328° Northwest 43,000  Level Aus ATC (Calculated)
10:03PM -9.1159 159.8356 328° Northwest 43,000  Level Aus ATC (Calculated)
10:04PM -9.0226 159.7767 328° Northwest  Level FlightAware Approximate
10:05PM -8.9616 159.7623 328° Northwest  Level Estimated
10:06PM -8.8595 159.6953 327° Northwest  Level FlightAware Approximate
10:07PM -8.7573 159.6284 327° Northwest  Level FlightAware Approximate
10:08PM -8.6552 159.5615 327° Northwest  Level FlightAware Approximate
10:08PM -8.6369 159.5338 328° Northwest 43,000  Level Aus ATC (Calculated)
10:10PM -8.5008 159.4481 328° Northwest  Level FlightAware Approximate
10:11PM -8.3905 159.3961 328° Northwest  Level Estimated
10:12PM -8.2878 159.3302 328° Northwest  Level FlightAware Approximate
10:13PM -8.1850 159.2643 328° Northwest  Level FlightAware Approximate
10:14PM -8.0822 159.1984 328° Northwest  Level FlightAware Approximate
10:14PM -7.9407 159.0965 328° Northwest 43,000  Level Aus ATC (Calculated)
10:15PM -7.9795 159.1326 328° Northwest  Level FlightAware Approximate
10:16PM -7.8360 159.0299 328° Northwest  Level FlightAware Approximate
10:17PM -7.7329 158.9646 328° Northwest  Level FlightAware Approximate
10:18PM -7.6299 158.8992 328° Northwest  Level FlightAware Approximate
10:19PM -7.5269 158.8339 328° Northwest  Level FlightAware Approximate
10:20PM -7.4238 158.7686 328° Northwest  Level FlightAware Approximate
10:21PM -7.3207 158.7033 328° Northwest  Level FlightAware Approximate
10:22PM -7.2176 158.6380 328° Northwest  Level FlightAware Approximate
10:23PM -7.1146 158.5728 328° Northwest  Level FlightAware Approximate
10:24PM -7.0114 158.5077 328° Northwest  Level FlightAware Approximate
10:25PM -6.9083 158.4425 328° Northwest  Level FlightAware Approximate
10:26PM -6.8052 158.3774 328° Northwest  Level FlightAware Approximate
10:27PM -6.7021 158.3123 328° Northwest  Level FlightAware Approximate
10:28PM -6.5990 158.2472 328° Northwest  Level FlightAware Approximate
10:29PM -6.4958 158.1822 328° Northwest  Level FlightAware Approximate
10:30PM -6.3927 158.1172 328° Northwest  Level FlightAware Approximate
10:30PM -6.3677 158.1156 329° Northwest 43,000  Level Aus ATC (Calculated)
10:32PM -6.1649 157.9839 327° Northwest  Level FlightAware Approximate
10:33PM -6.0627 157.9175 327° Northwest  Level FlightAware Approximate
10:34PM -5.9519 157.8668 329° Northwest  Level Estimated
10:35PM -5.8135 157.7812 328° Northwest  Level FlightAware Approximate
10:36PM -5.6751 157.6957 328° Northwest  Level FlightAware Approximate
10:37PM -5.5367 157.6102 328° Northwest  Level FlightAware Approximate
10:38PM -5.3982 157.5247 328° Northwest  Level FlightAware Approximate
10:39PM -5.2598 157.4393 328° Northwest  Level FlightAware Approximate
10:40PM -5.1213 157.3539 328° Northwest  Level FlightAware Approximate
10:41PM -4.9828 157.2686 328° Northwest  Level FlightAware Approximate
10:42PM -4.8443 157.1833 328° Northwest  Level FlightAware Approximate
10:43PM -4.7058 157.0980 328° Northwest  Level FlightAware Approximate
10:44PM -4.5673 157.0128 328° Northwest  Level FlightAware Approximate
10:45PM -4.4288 156.9276 328° Northwest  Level FlightAware Approximate
10:46PM -4.2903 156.8424 328° Northwest  Level FlightAware Approximate
10:47PM -4.1517 156.7572 328° Northwest  Level FlightAware Approximate
10:48PM -4.0132 156.6721 328° Northwest  Level FlightAware Approximate
10:49PM -3.8746 156.5870 329° Northwest  Level FlightAware Approximate
10:50PM -3.7361 156.5020 329° Northwest  Level FlightAware Approximate
10:51PM -3.6323 156.4383 329° Northwest  Level FlightAware Approximate
10:52PM -3.5285 156.3746 329° Northwest  Level FlightAware Approximate
10:53PM -3.4247 156.3109 329° Northwest  Level FlightAware Approximate
10:54PM -3.3209 156.2473 329° Northwest  Level FlightAware Approximate
10:55PM -3.2171 156.1836 329° Northwest  Level FlightAware Approximate
10:56PM -3.1133 156.1200 329° Northwest  Level FlightAware Approximate
10:57PM -3.0094 156.0564 329° Northwest  Level FlightAware Approximate
10:58PM -2.9056 155.9928 329° Northwest  Level FlightAware Approximate
10:59PM -2.8018 155.9292 329° Northwest  Level FlightAware Approximate
11:00PM -2.6980 155.8656 329° Northwest  Level FlightAware Approximate
11:01PM -2.5941 155.8021 329° Northwest  Level FlightAware Approximate
11:02PM -2.4903 155.7385 329° Northwest  Level FlightAware Approximate
11:03PM -2.3865 155.6750 329° Northwest  Level FlightAware Approximate
11:04PM -2.2826 155.6114 329° Northwest  Level FlightAware Approximate
11:05PM -2.1788 155.5479 329° Northwest  Level FlightAware Approximate
11:06PM -2.0749 155.4844 329° Northwest  Level FlightAware Approximate
11:07PM -1.9711 155.4209 329° Northwest  Level FlightAware Approximate
11:08PM -1.8672 155.3574 329° Northwest  Level FlightAware Approximate
11:09PM -1.7634 155.2939 329° Northwest  Level FlightAware Approximate
11:10PM -1.6595 155.2304 329° Northwest  Level FlightAware Approximate
11:11PM -1.5557 155.1669 329° Northwest  Level FlightAware Approximate
11:12PM -1.4518 155.1034 329° Northwest  Level FlightAware Approximate
11:13PM -1.3479 155.0400 329° Northwest  Level FlightAware Approximate
11:14PM -1.2441 154.9765 329° Northwest  Level FlightAware Approximate
11:15PM -1.1402 154.9130 329° Northwest  Level FlightAware Approximate
11:16PM -1.0364 154.8496 329° Northwest  Level FlightAware Approximate
11:17PM -0.9325 154.7861 329° Northwest  Level FlightAware Approximate
11:18PM -0.8286 154.7227 329° Northwest  Level FlightAware Approximate
11:19PM -0.7247 154.6593 329° Northwest  Level FlightAware Approximate
11:20PM -0.6209 154.5958 329° Northwest  Level FlightAware Approximate
11:21PM -0.5170 154.5324 329° Northwest  Level FlightAware Approximate
11:22PM -0.4131 154.4689 329° Northwest  Level FlightAware Approximate
11:23PM -0.3014 154.4207 329° Northwest  Level Estimated
11:24PM -0.1975 154.3573 329° Northwest  Level FlightAware Approximate
11:25PM -0.0936 154.2939 329° Northwest  Level FlightAware Approximate
11:26PM 0.0103 154.2305 329° Northwest  Level FlightAware Approximate
11:27PM 0.1141 154.1671 329° Northwest  Level FlightAware Approximate
11:28PM 0.2180 154.1036 329° Northwest  Level FlightAware Approximate
11:29PM 0.3219 154.0402 329° Northwest  Level FlightAware Approximate
11:30PM 0.4258 153.9768 329° Northwest  Level FlightAware Approximate
11:31PM 0.5297 153.9134 329° Northwest  Level FlightAware Approximate
11:32PM 0.6335 153.8500 329° Northwest  Level FlightAware Approximate
11:33PM 0.7374 153.7865 329° Northwest  Level FlightAware Approximate
11:34PM 0.8413 153.7231 329° Northwest  Level FlightAware Approximate
11:35PM 0.9452 153.6597 329° Northwest  Level FlightAware Approximate
11:35PM 0.0000 154.2333 329° Northwest 447 514 43,000  Level Oakland Oceanic (ODAPS)
11:36PM 1.0491 153.5962 329° Northwest  Level FlightAware Approximate
11:37PM 1.1529 153.5328 329° Northwest  Level FlightAware Approximate
11:38PM 1.2568 153.4693 329° Northwest  Level FlightAware Approximate
11:39PM 1.3607 153.4059 329° Northwest  Level FlightAware Approximate
11:40PM 1.4645 153.3424 329° Northwest  Level FlightAware Approximate
11:41PM 1.9170 153.0636 329° Northwest 447 514 43,000  Level FlightAware Transoceanic
11:42PM 2.0235 152.9986 329° Northwest 447 514 43,000  Level FlightAware Transoceanic
11:43PM 2.1300 152.9335 329° Northwest 447 514 43,000  Level FlightAware Transoceanic
11:44PM 2.2364 152.8685 329° Northwest 447 514 43,000  Level FlightAware Transoceanic
11:45PM 2.3429 152.8034 329° Northwest 447 514 43,000  Level FlightAware Transoceanic
11:46PM 2.4494 152.7383 329° Northwest 447 514 43,000  Level FlightAware Transoceanic
11:47PM 2.5559 152.6732 329° Northwest 447 514 43,000  Level FlightAware Transoceanic
11:48PM 2.6623 152.6082 329° Northwest 447 514 43,000  Level FlightAware Transoceanic
11:49PM 2.7688 152.5430 329° Northwest 447 514 43,000  Level FlightAware Transoceanic
11:50PM 2.8752 152.4779 329° Northwest 447 514 43,000  Level FlightAware Transoceanic
11:51PM 2.9817 152.4128 329° Northwest 447 514 43,000  Level FlightAware Transoceanic
11:52PM 3.0882 152.3477 329° Northwest 447 514 43,000  Level FlightAware Transoceanic
11:53PM 3.1946 152.2825 329° Northwest 447 514 43,000  Level FlightAware Transoceanic
11:54PM 3.3010 152.2173 329° Northwest 447 514 43,000  Level FlightAware Transoceanic
11:55PM 3.4075 152.1521 329° Northwest 447 514 43,000  Level FlightAware Transoceanic
11:56PM 3.5139 152.0869 329° Northwest 447 514 43,000  Level FlightAware Transoceanic
11:57PM 3.6203 152.0217 329° Northwest 447 514 43,000  Level FlightAware Transoceanic
11:58PM 3.7268 151.9565 329° Northwest 447 514 43,000  Level FlightAware Transoceanic
11:59PM 3.8332 151.8913 329° Northwest 447 514 43,000  Level FlightAware Transoceanic
12:00AM 3.9396 151.8260 329° Northwest 447 514 43,000  Level FlightAware Transoceanic
12:01AM 4.0460 151.7607 329° Northwest 447 514 43,000  Level FlightAware Transoceanic
12:02AM 4.1524 151.6954 329° Northwest 447 514 43,000  Level FlightAware Transoceanic
12:03AM 4.2588 151.6301 329° Northwest 447 514 43,000  Level FlightAware Transoceanic
12:04AM 4.3652 151.5648 329° Northwest 447 514 43,000  Level FlightAware Transoceanic
12:05AM 4.4716 151.4994 329° Northwest 447 514 43,000  Level FlightAware Transoceanic
12:06AM 4.5780 151.4341 329° Northwest 447 514 43,000  Level FlightAware Transoceanic
12:07AM 4.6844 151.3687 329° Northwest 447 514 43,000  Level FlightAware Transoceanic
12:08AM 4.7907 151.3033 328° Northwest 447 514 43,000  Level FlightAware Transoceanic
12:09AM 4.8971 151.2378 328° Northwest 447 514 43,000  Level FlightAware Transoceanic
12:10AM 5.0035 151.1724 328° Northwest 447 514 43,000  Level FlightAware Transoceanic
12:11AM 5.1098 151.1069 328° Northwest 447 514 43,000  Level FlightAware Transoceanic
12:12AM 5.2162 151.0414 328° Northwest 447 514 43,000  Level FlightAware Transoceanic
12:13AM 5.3225 150.9759 328° Northwest 447 514 43,000  Level FlightAware Transoceanic
12:14AM 5.4288 150.9104 328° Northwest 447 514 43,000  Level FlightAware Transoceanic
12:15AM 5.5352 150.8448 328° Northwest 447 514 43,000  Level FlightAware Transoceanic
12:16AM 5.6415 150.7792 328° Northwest 447 514 43,000  Level FlightAware Transoceanic
12:17AM 5.7478 150.7136 328° Northwest 447 514 43,000  Level FlightAware Transoceanic
12:18AM 5.8541 150.6480 328° Northwest 447 514 43,000  Level FlightAware Transoceanic
12:19AM 5.9604 150.5824 328° Northwest 447 514 43,000  Level FlightAware Transoceanic
12:20AM 6.0667 150.5167 329° Northwest 447 514 43,000 1,320 Level FlightAware Transoceanic
12:20AM 6.0667 150.5167 329° Northwest 438 504 45,000  Climbing Oakland Oceanic (ODAPS)
12:21AM 6.1712 150.4526 329° Northwest 447 514 43,000 -1,320 Descending FlightAware Transoceanic
12:22AM 6.2758 150.3886 329° Northwest 447 514 43,000  Level FlightAware Transoceanic
12:23AM 6.3803 150.3245 329° Northwest 447 514 43,000  Level FlightAware Transoceanic
12:24AM 6.4849 150.2603 329° Northwest 447 514 43,000  Level FlightAware Transoceanic
12:25AM 6.5894 150.1962 329° Northwest 447 514 43,000 960 Level FlightAware Transoceanic
12:26AM 6.7984 150.0678 329° Northwest 438 504 45,000 960 Climbing FlightAware Transoceanic
12:27AM 6.9029 150.0036 329° Northwest 438 504 45,000  Level FlightAware Transoceanic
12:28AM 7.0074 149.9393 329° Northwest 438 504 45,000  Level FlightAware Transoceanic
12:29AM 7.1119 149.8750 329° Northwest 438 504 45,000  Level FlightAware Transoceanic
12:30AM 7.2164 149.8107 329° Northwest 438 504 45,000  Level FlightAware Transoceanic
12:31AM 7.3208 149.7464 329° Northwest 438 504 45,000  Level FlightAware Transoceanic
12:32AM 7.4253 149.6820 329° Northwest 438 504 45,000  Level FlightAware Transoceanic
12:33AM 7.5297 149.6176 329° Northwest 438 504 45,000  Level FlightAware Transoceanic
12:34AM 7.6342 149.5532 329° Northwest 438 504 45,000  Level FlightAware Transoceanic
12:35AM 7.7386 149.4887 329° Northwest 438 504 45,000  Level FlightAware Transoceanic
12:36AM 7.8430 149.4242 329° Northwest 438 504 45,000  Level FlightAware Transoceanic
12:37AM 7.9475 149.3597 329° Northwest 438 504 45,000  Level FlightAware Transoceanic
12:38AM 8.0519 149.2951 329° Northwest 438 504 45,000  Level FlightAware Transoceanic
12:39AM 8.1562 149.2305 329° Northwest 438 504 45,000  Level FlightAware Transoceanic
12:40AM 8.2606 149.1659 328° Northwest 438 504 45,000  Level FlightAware Transoceanic
12:41AM 8.3650 149.1012 328° Northwest 438 504 45,000  Level FlightAware Transoceanic
12:42AM 8.4693 149.0365 328° Northwest 438 504 45,000  Level FlightAware Transoceanic
12:43AM 8.5737 148.9718 328° Northwest 438 504 45,000  Level FlightAware Transoceanic
12:44AM 8.6780 148.9070 328° Northwest 438 504 45,000  Level FlightAware Transoceanic
12:45AM 8.7824 148.8422 328° Northwest 438 504 45,000  Level FlightAware Transoceanic
12:46AM 8.8867 148.7773 328° Northwest 438 504 45,000  Level FlightAware Transoceanic
12:47AM 8.9910 148.7125 328° Northwest 438 504 45,000  Level FlightAware Transoceanic
12:48AM 9.0953 148.6476 328° Northwest 438 504 45,000  Level FlightAware Transoceanic
12:49AM 9.1996 148.5826 328° Northwest 438 504 45,000  Level FlightAware Transoceanic
12:50AM 9.3038 148.5176 328° Northwest 438 504 45,000  Level FlightAware Transoceanic
12:51AM 9.4081 148.4526 328° Northwest 438 504 45,000  Level FlightAware Transoceanic
12:52AM 9.5123 148.3875 328° Northwest 438 504 45,000  Level FlightAware Transoceanic
12:53AM 9.6166 148.3224 328° Northwest 438 504 45,000  Level FlightAware Transoceanic
12:54AM 9.7208 148.2572 328° Northwest 438 504 45,000  Level FlightAware Transoceanic
12:55AM 9.8250 148.1920 328° Northwest 438 504 45,000  Level FlightAware Transoceanic
12:56AM 9.9292 148.1268 328° Northwest 438 504 45,000  Level FlightAware Transoceanic
12:57AM 10.0334 148.0615 328° Northwest 438 504 45,000  Level FlightAware Transoceanic
12:58AM 10.1376 147.9962 328° Northwest 438 504 45,000  Level FlightAware Transoceanic
12:59AM 10.2417 147.9308 328° Northwest 438 504 45,000  Level FlightAware Transoceanic
01:00AM 10.3459 147.8654 328° Northwest 438 504 45,000  Level FlightAware Transoceanic
01:01AM 10.4500 147.8000 328° Northwest 438 504 45,000  Level FlightAware Transoceanic
01:02AM 10.5601 147.7302 328° Northwest 438 504 45,000  Level FlightAware Transoceanic
01:02AM 10.5667 147.7333 328° Northwest 420 483 45,000  Level Guam Center
01:03AM 10.6701 147.6604 328° Northwest 438 504 45,000  Level FlightAware Transoceanic
01:03AM 10.6667 147.6833 334° Northwest 430 495 45,000  Level Guam Center
01:04AM 10.7802 147.5905 328° Northwest 438 504 45,000  Level FlightAware Transoceanic
01:04AM 10.7667 147.6167 327° Northwest 430 495 45,000  Level Guam Center
01:05AM 10.8902 147.5206 328° Northwest 438 504 45,000  Level FlightAware Transoceanic
01:05AM 10.8667 147.5333 321° Northwest 430 495 45,000  Level Guam Center
01:06AM 11.0002 147.4507 328° Northwest 438 504 45,000  Level FlightAware Transoceanic
01:06AM 10.9500 147.4667 322° Northwest 420 483 45,000  Level Guam Center
01:07AM 11.1102 147.3806 328° Northwest 438 504 45,000  Level FlightAware Transoceanic
01:07AM 11.0500 147.4000 327° Northwest 430 495 45,000  Level Guam Center
01:08AM 11.2202 147.3105 328° Northwest 438 504 45,000  Level FlightAware Transoceanic
01:08AM 11.1500 147.3333 327° Northwest 430 495 45,000  Level Guam Center
01:09AM 11.2500 147.2500 321° Northwest 430 495 45,000  Level Guam Center
01:10AM 11.3500 147.1833 327° Northwest 430 495 45,000  Level Guam Center
01:11AM 11.4500 147.1167 327° Northwest 430 495 45,000  Level Guam Center
01:12AM 11.5500 147.0333 321° Northwest 440 506 45,000  Level Guam Center
01:13AM 11.6500 146.9667 327° Northwest 440 506 45,000  Level Guam Center
01:14AM 11.7500 146.8833 321° Northwest 440 506 45,000  Level Guam Center
01:15AM 11.8500 146.8167 327° Northwest 440 506 45,000  Level Guam Center
01:16AM 11.9500 146.7500 327° Northwest 440 506 45,000  Level Guam Center
01:17AM 12.0500 146.6667 321° Northwest 440 506 45,000  Level Guam Center
01:18AM 12.1500 146.6000 327° Northwest 440 506 45,000  Level Guam Center
01:19AM 12.2500 146.5167 321° Northwest 430 495 45,000  Level Guam Center
01:20AM 12.3333 146.4500 322° Northwest 440 506 45,000  Level Guam Center
01:21AM 12.4500 146.3667 325° Northwest 450 518 45,000  Level Guam Center
01:22AM 12.5500 146.3000 327° Northwest 440 506 45,000  Level Guam Center
01:23AM 12.6333 146.2333 322° Northwest 440 506 45,000  Level Guam Center
01:24AM 12.7333 146.1500 321° Northwest 430 495 45,000  Level Guam Center
01:25AM 12.8333 146.0833 327° Northwest 440 506 45,000  Level Guam Center
01:26AM 12.9333 146.0000 321° Northwest 440 506 45,000  Level Guam Center
01:27AM 13.0333 145.9333 327° Northwest 450 518 45,000  Level Guam Center
01:28AM 13.1333 145.8667 327° Northwest 440 506 45,000  Level Guam Center
01:29AM 13.2333 145.7833 321° Northwest 440 506 45,000  Level Guam Center
01:30AM 13.3333 145.7167 327° Northwest 440 506 45,000  Level Guam Center
01:31AM 13.4500 145.6333 325° Northwest 430 495 45,000  Level Guam Center
01:32AM 13.5500 145.5500 321° Northwest 440 506 45,000  Level Guam Center
01:33AM 13.6500 145.4833 327° Northwest 450 518 45,000  Level Guam Center
01:34AM 13.7500 145.4000 321° Northwest 450 518 45,000  Level Guam Center
01:35AM 13.8500 145.3333 327° Northwest 440 506 45,000  Level Guam Center
01:36AM 13.9500 145.2667 327° Northwest 440 506 45,000  Level Guam Center
01:37AM 14.0500 145.1833 321° Northwest 440 506 45,000  Level Guam Center
01:38AM 14.1500 145.1000 321° Northwest 440 506 45,000  Level Guam Center
01:39AM 14.2500 145.0333 327° Northwest 440 506 45,000  Level Guam Center
01:40AM 14.3500 144.9667 327° Northwest 440 506 45,000  Level Guam Center
01:41AM 14.4333 144.8833 316° Northwest 430 495 45,000  Level Guam Center
01:42AM 14.5333 144.8167 327° Northwest 440 506 45,000  Level Guam Center
01:43AM 14.6333 144.7333 321° Northwest 440 506 45,000  Level Guam Center
01:44AM 14.7333 144.6667 327° Northwest 440 506 45,000  Level Guam Center
01:45AM 14.8333 144.5833 321° Northwest 440 506 45,000  Level Guam Center
01:46AM 14.9333 144.5167 327° Northwest 440 506 45,000  Level Guam Center
01:47AM 15.0333 144.4500 327° Northwest 440 506 45,000  Level Guam Center
01:48AM 15.1333 144.3667 321° Northwest 440 506 45,000  Level Guam Center
01:49AM 15.2333 144.3000 327° Northwest 440 506 45,000  Level Guam Center
01:50AM 15.3167 144.2167 316° Northwest 430 495 45,000  Level Guam Center
01:51AM 15.4167 144.1500 327° Northwest 430 495 45,000  Level Guam Center
01:52AM 15.5167 144.0667 321° Northwest 430 495 45,000  Level Guam Center
01:53AM 15.6167 144.0000 327° Northwest 430 495 45,000  Level Guam Center
01:54AM 15.7167 143.9167 321° Northwest 430 495 45,000  Level Guam Center
01:55AM 15.8167 143.8500 327° Northwest 430 495 45,000  Level Guam Center
01:56AM 15.9167 143.7667 321° Northwest 450 518 45,000  Level Guam Center
01:57AM 16.0167 143.7000 327° Northwest 450 518 45,000  Level Guam Center
01:58AM 16.1000 143.6167 316° Northwest 440 506 45,000  Level Guam Center
01:59AM 16.2000 143.5500 327° Northwest 440 506 45,000  Level Guam Center
02:00AM 16.3000 143.4667 321° Northwest 440 506 45,000  Level Guam Center
02:01AM 16.4000 143.4000 327° Northwest 450 518 45,000  Level Guam Center
02:02AM 16.5000 143.3167 321° Northwest 440 506 45,000  Level Guam Center
02:03AM 16.6000 143.2333 321° Northwest 440 506 45,000  Level Guam Center
02:04AM 16.7000 143.1667 327° Northwest 440 506 45,000  Level Guam Center
02:05AM 16.8000 143.0833 321° Northwest 450 518 45,000  Level Guam Center
02:06AM 16.9000 143.0167 327° Northwest 440 506 45,000  Level Guam Center
02:07AM 17.0000 142.9333 321° Northwest 430 495 45,000  Level Guam Center
02:08AM 17.1000 142.8667 327° Northwest 440 506 45,000  Level Guam Center
02:10AM 17.2000 142.8167 331° Northwest 432 497 45,000  Level Oakland Oceanic (ODAPS)
02:17AM 18.0467 142.3327 331° Northwest 432 497 45,000  Level FlightAware Transoceanic
02:18AM 18.1524 142.2719 331° Northwest 432 497 45,000  Level FlightAware Transoceanic
02:19AM 18.2582 142.2110 331° Northwest 432 497 45,000  Level FlightAware Transoceanic
02:20AM 18.3639 142.1500 331° Northwest 432 497 45,000  Level FlightAware Transoceanic
02:21AM 18.4696 142.0889 331° Northwest 432 497 45,000  Level FlightAware Transoceanic
02:22AM 18.5752 142.0278 331° Northwest 432 497 45,000  Level FlightAware Transoceanic
02:23AM 18.6809 141.9666 331° Northwest 432 497 45,000  Level FlightAware Transoceanic
02:24AM 18.7865 141.9053 331° Northwest 432 497 45,000  Level FlightAware Transoceanic
02:25AM 18.8922 141.8440 331° Northwest 432 497 45,000  Level FlightAware Transoceanic
02:26AM 18.9977 141.7826 331° Northwest 432 497 45,000  Level FlightAware Transoceanic
02:27AM 19.1033 141.7211 331° Northwest 432 497 45,000  Level FlightAware Transoceanic
02:28AM 19.2089 141.6595 331° Northwest 432 497 45,000  Level FlightAware Transoceanic
02:29AM 19.3144 141.5978 331° Northwest 432 497 45,000  Level FlightAware Transoceanic
02:30AM 19.4199 141.5361 331° Northwest 432 497 45,000  Level FlightAware Transoceanic
02:31AM 19.5254 141.4743 331° Northwest 432 497 45,000  Level FlightAware Transoceanic
02:32AM 19.6309 141.4124 331° Northwest 432 497 45,000  Level FlightAware Transoceanic
02:33AM 19.7363 141.3504 331° Northwest 432 497 45,000  Level FlightAware Transoceanic
02:34AM 19.8417 141.2883 331° Northwest 432 497 45,000  Level FlightAware Transoceanic
02:35AM 19.9472 141.2262 331° Northwest 432 497 45,000  Level FlightAware Transoceanic
02:36AM 20.0525 141.1639 331° Northwest 432 497 45,000  Level FlightAware Transoceanic
02:37AM 20.1579 141.1016 331° Northwest 432 497 45,000  Level FlightAware Transoceanic
02:38AM 20.2632 141.0392 331° Northwest 432 497 45,000  Level FlightAware Transoceanic
02:39AM 20.3686 140.9767 331° Northwest 432 497 45,000  Level FlightAware Transoceanic
02:40AM 20.4739 140.9142 331° Northwest 432 497 45,000  Level FlightAware Transoceanic
02:41AM 20.5791 140.8515 331° Northwest 432 497 45,000  Level FlightAware Transoceanic
02:42AM 20.6844 140.7888 331° Northwest 432 497 45,000  Level FlightAware Transoceanic
02:43AM 20.7896 140.7259 331° Northwest 432 497 45,000  Level FlightAware Transoceanic
02:44AM 20.8948 140.6630 331° Northwest 432 497 45,000  Level FlightAware Transoceanic
02:45AM 21.0000 140.6000 342° North 432 497 45,000  Level FlightAware Transoceanic
02:46AM 21.1214 140.5578 342° North 432 497 45,000  Level FlightAware Transoceanic
02:47AM 21.2428 140.5155 342° North 432 497 45,000  Level FlightAware Transoceanic
02:48AM 21.3641 140.4731 342° North 432 497 45,000  Level FlightAware Transoceanic
02:49AM 21.4855 140.4306 342° North 432 497 45,000  Level FlightAware Transoceanic
02:50AM 21.6069 140.3881 342° North 432 497 45,000  Level FlightAware Transoceanic
02:51AM 21.7282 140.3456 342° North 432 497 45,000  Level FlightAware Transoceanic
02:52AM 21.8495 140.3029 342° North 432 497 45,000  Level FlightAware Transoceanic
02:53AM 21.9709 140.2602 342° North 432 497 45,000  Level FlightAware Transoceanic
02:54AM 22.0922 140.2174 342° North 432 497 45,000  Level FlightAware Transoceanic
02:55AM 22.2135 140.1745 342° North 432 497 45,000  Level FlightAware Transoceanic
02:56AM 22.3347 140.1315 342° North 432 497 45,000  Level FlightAware Transoceanic
02:57AM 22.4560 140.0885 342° North 432 497 45,000  Level FlightAware Transoceanic
02:58AM 22.5773 140.0454 342° North 432 497 45,000  Level FlightAware Transoceanic
02:59AM 22.6985 140.0022 342° North 432 497 45,000  Level FlightAware Transoceanic
03:00AM 22.8198 139.9590 342° North 432 497 45,000  Level FlightAware Transoceanic
03:01AM 22.9410 139.9156 342° North 432 497 45,000  Level FlightAware Transoceanic
03:02AM 23.0622 139.8722 342° North 432 497 45,000  Level FlightAware Transoceanic
03:03AM 23.1834 139.8288 342° North 432 497 45,000  Level FlightAware Transoceanic
03:04AM 23.3046 139.7852 342° North 432 497 45,000  Level FlightAware Transoceanic
03:05AM 23.4258 139.7415 342° North 432 497 45,000  Level FlightAware Transoceanic
03:06AM 23.5470 139.6978 342° North 432 497 45,000  Level FlightAware Transoceanic
03:07AM 23.6681 139.6540 342° North 432 497 45,000  Level FlightAware Transoceanic
03:08AM 23.7893 139.6101 342° North 432 497 45,000  Level FlightAware Transoceanic
03:09AM 23.9104 139.5662 342° North 432 497 45,000  Level FlightAware Transoceanic
03:10AM 24.0315 139.5221 342° North 432 497 45,000  Level FlightAware Transoceanic
03:11AM 24.1526 139.4780 342° North 432 497 45,000  Level FlightAware Transoceanic
03:12AM 24.2737 139.4338 342° North 432 497 45,000  Level FlightAware Transoceanic
03:13AM 24.3948 139.3895 342° North 432 497 45,000  Level FlightAware Transoceanic
03:14AM 24.5159 139.3451 342° North 432 497 45,000  Level FlightAware Transoceanic
03:15AM 24.6369 139.3006 342° North 432 497 45,000  Level FlightAware Transoceanic
03:16AM 24.7580 139.2560 341° North 432 497 45,000  Level FlightAware Transoceanic
03:17AM 24.8790 139.2114 341° North 432 497 45,000  Level FlightAware Transoceanic
03:18AM 24.9557 139.1725 335° Northwest  Level FlightAware Approximate
03:19AM 25.0325 139.1335 335° Northwest  Level FlightAware Approximate
03:20AM 24.9557 139.1725 155° Southeast  Level FlightAware Approximate
03:21AM 25.0387 139.1545 341° North  Level Estimated
03:22AM 25.1186 139.1243 341° North  Level FlightAware Approximate
03:23AM 25.1985 139.0941 341° North  Level FlightAware Approximate
03:24AM 25.2785 139.0638 341° North  Level FlightAware Approximate
03:25AM 25.3584 139.0335 341° North  Level FlightAware Approximate
03:26AM 25.4383 139.0032 341° North  Level FlightAware Approximate
03:27AM 25.5182 138.9728 341° North  Level FlightAware Approximate
03:28AM 25.5981 138.9424 341° North  Level FlightAware Approximate
03:29AM 25.6780 138.9119 341° North  Level FlightAware Approximate
03:30AM 25.7579 138.8814 341° North  Level FlightAware Approximate
03:31AM 25.8378 138.8509 341° North  Level FlightAware Approximate
03:32AM 25.9177 138.8203 341° North  Level FlightAware Approximate
03:33AM 25.9976 138.7897 341° North  Level FlightAware Approximate
03:34AM 26.0774 138.7590 341° North  Level FlightAware Approximate
03:35AM 26.1573 138.7283 341° North  Level FlightAware Approximate
03:36AM 26.2372 138.6976 341° North  Level FlightAware Approximate
03:37AM 26.3170 138.6668 341° North  Level FlightAware Approximate
03:38AM 26.3969 138.6359 341° North  Level FlightAware Approximate
03:39AM 26.4767 138.6051 341° North  Level FlightAware Approximate
03:40AM 26.5565 138.5741 341° North  Level FlightAware Approximate
03:41AM 26.6363 138.5432 341° North  Level FlightAware Approximate
03:42AM 26.7162 138.5122 341° North  Level FlightAware Approximate
03:43AM 26.7960 138.4811 341° North  Level FlightAware Approximate
03:44AM 26.8758 138.4500 341° North  Level FlightAware Approximate
03:45AM 26.9556 138.4189 341° North  Level FlightAware Approximate
03:46AM 27.0354 138.3877 341° North  Level FlightAware Approximate
03:47AM 27.1151 138.3565 341° North  Level FlightAware Approximate
03:48AM 27.1949 138.3253 341° North  Level FlightAware Approximate
03:49AM 27.2747 138.2939 341° North  Level FlightAware Approximate
03:50AM 27.3544 138.2626 341° North  Level FlightAware Approximate
03:51AM 27.4342 138.2312 341° North  Level FlightAware Approximate
03:52AM 27.5139 138.1997 341° North  Level FlightAware Approximate
03:53AM 27.5937 138.1682 341° North  Level FlightAware Approximate
03:54AM 27.6734 138.1367 341° North  Level FlightAware Approximate
03:55AM 27.7531 138.1051 341° North  Level FlightAware Approximate
03:56AM 27.8367 138.0909 341° North  Level Estimated
03:57AM 27.9164 138.0592 341° North  Level FlightAware Approximate
03:58AM 27.9961 138.0274 341° North  Level FlightAware Approximate
03:59AM 28.0758 137.9956 341° North  Level FlightAware Approximate
04:00AM 28.1554 137.9637 341° North  Level FlightAware Approximate
04:01AM 28.2351 137.9318 341° North  Level FlightAware Approximate
04:02AM 28.3148 137.8999 341° North  Level FlightAware Approximate
04:03AM 28.3944 137.8679 341° North  Level FlightAware Approximate
04:04AM 28.4741 137.8358 341° North  Level FlightAware Approximate
04:05AM 28.5537 137.8037 341° North  Level FlightAware Approximate
04:06AM 28.6333 137.7716 340° North  Level FlightAware Approximate
04:07AM 28.7129 137.7394 340° North  Level FlightAware Approximate
04:08AM 28.7926 137.7071 340° North  Level FlightAware Approximate
04:09AM 28.8722 137.6748 340° North  Level FlightAware Approximate
04:10AM 28.9561 137.6634 341° North  Level Estimated
04:11AM 29.0357 137.6310 340° North  Level FlightAware Approximate
04:12AM 29.1152 137.5984 340° North  Level FlightAware Approximate
04:13AM 29.1948 137.5659 340° North  Level FlightAware Approximate
04:14AM 29.2743 137.5333 340° North  Level FlightAware Approximate
04:15AM 29.3539 137.5006 340° North  Level FlightAware Approximate
04:16AM 29.4334 137.4679 340° North  Level FlightAware Approximate
04:17AM 29.5129 137.4352 340° North  Level FlightAware Approximate
04:18AM 29.5925 137.4023 340° North  Level FlightAware Approximate
04:19AM 29.6720 137.3695 340° North  Level FlightAware Approximate
04:20AM 29.7515 137.3366 340° North  Level FlightAware Approximate
04:21AM 29.8310 137.3036 340° North  Level FlightAware Approximate
04:22AM 29.9105 137.2706 340° North  Level FlightAware Approximate
04:23AM 29.9947 137.2631 340° North  Level Estimated
04:24AM 30.0726 137.2253 337° Northwest  Level FlightAware Approximate
04:25AM 30.1505 137.1874 337° Northwest  Level FlightAware Approximate
04:26AM 30.2283 137.1495 337° Northwest  Level FlightAware Approximate
04:27AM 30.3062 137.1115 337° Northwest  Level FlightAware Approximate
04:28AM 30.3841 137.0735 337° Northwest  Level FlightAware Approximate
04:29AM 30.4684 137.0686 341° North  Level Estimated
04:30AM 30.5475 137.0341 339° North  Level FlightAware Approximate
04:31AM 30.6265 136.9995 339° North  Level FlightAware Approximate
04:32AM 30.7056 136.9648 339° North  Level FlightAware Approximate
04:33AM 30.7846 136.9300 339° North  Level FlightAware Approximate
04:34AM 30.8637 136.8952 339° North  Level FlightAware Approximate
04:35AM 30.9427 136.8604 339° North  Level FlightAware Approximate
04:36AM 31.0217 136.8255 339° North  Level FlightAware Approximate
04:37AM 31.1007 136.7905 339° North  Level FlightAware Approximate
04:38AM 31.1797 136.7555 339° North  Level FlightAware Approximate
04:39AM 31.2587 136.7204 339° North  Level FlightAware Approximate
04:40AM 31.3376 136.6852 339° North  Level FlightAware Approximate
04:41AM 31.4221 136.6880 339° North  Level Estimated
04:42AM 31.4990 136.6470 336° Northwest  Level FlightAware Approximate
04:43AM 31.5759 136.6060 336° Northwest  Level FlightAware Approximate
04:44AM 31.6528 136.5648 336° Northwest  Level FlightAware Approximate
04:45AM 31.7296 136.5236 335° Northwest  Level FlightAware Approximate
04:46AM 31.8065 136.4824 335° Northwest  Level FlightAware Approximate
04:47AM 31.8907 136.4910 341° North  Level Estimated
04:48AM 31.9687 136.4529 338° Northwest  Level FlightAware Approximate
04:49AM 32.0468 136.4148 338° Northwest  Level FlightAware Approximate
04:50AM 32.1248 136.3766 337° Northwest  Level FlightAware Approximate
04:51AM 32.2029 136.3383 337° Northwest  Level FlightAware Approximate
04:52AM 32.2809 136.3000 337° Northwest  Level FlightAware Approximate
04:53AM 32.3589 136.2616 337° Northwest  Level FlightAware Approximate
04:54AM 32.4421 136.2792 339° North  Level Estimated
04:55AM 32.5132 136.2251 327° Northwest  Level FlightAware Approximate
04:56AM 32.5960 136.2450 337° Northwest  Level Estimated
04:57AM 32.6787 136.2650 339° North  Level Estimated
04:58AM 32.7346 136.1896 311° West  Level FlightAware Approximate
04:59AM 32.8168 136.2129 340° North  Level Estimated
05:00AM 32.8756 136.1407 314° West  Level FlightAware Approximate
05:01AM 32.9570 136.1673 341° North  Level Estimated
05:02AM 33.0171 136.0966 315° West  Level FlightAware Approximate
05:03AM 33.0977 136.1269 331° Northwest  Level Estimated
05:04AM 33.1782 136.1573 340° North  Level Estimated
05:05AM 33.2318 136.0792 309° West  Level FlightAware Approximate
05:06AM 33.3111 136.1139 348° North  Level Estimated
05:07AM 33.3904 136.1487 344° North  Level Estimated
05:08AM 33.4420 136.0685 308° West  Level FlightAware Approximate
05:09AM 33.5197 136.1082 40° Northeast  Level Estimated
05:10AM 33.5974 136.1481 35° Northeast  Level Estimated
05:11AM 33.6751 136.1082 337° Northwest  Level FlightAware Approximate
05:12AM 33.7528 136.0683 337° Northwest  Level FlightAware Approximate
05:13AM 33.8269 136.1171 38° Northeast  Level Estimated
05:14AM 33.9104 136.1325 North  Level FlightAware Approximate
05:15AM 33.9939 136.1480 North  Level FlightAware Approximate
05:16AM 34.0774 136.1636 North  Level FlightAware Approximate
05:17AM 34.1475 136.2206 40° Northeast  Level Estimated
05:18AM 34.2176 136.2777 35° Northeast  Level Estimated
05:19AM 34.2876 136.3348 40° Northeast  Level Estimated
05:20AM 34.3576 136.3921 34° Northeast  Level Estimated
05:21AM 34.4340 136.4359 25° Northeast  Level FlightAware Approximate
05:22AM 34.5027 136.4954 39° Northeast  Level Estimated
05:23AM 34.5727 136.5529 34° Northeast  Level FlightAware Approximate
05:24AM 34.6411 136.6132 32° Northeast  Level Estimated